SOHO CELIAS Proton Monitor
Solar Wind Parameters for Carrington Rotation 2052 (hour averages)


Listed Parameters:

Measurement time (Year, Month, Day of Month, Day of Year, Hour, Minute, Second)
Proton speed [km/sec]
Proton density [protons per cubic centimeter]
Most probable proton thermal speed [km/sec]
Arrival direction [degrees from north-south, with + meaning FROM the south).
(SPEED=-1 means NOT AVAILABLE)

SOHO spacecraft coordinates: based on SOHO PRE orbit files
GSE X, Y, Z [Earth Radii] 1 RE == 6378 km
Heliocentric Range [106 km],
Heliographic Latitude and Longitude [deg].

FORMAT=(1X,I2,1X,I3,1X,I2,1X,I2,1X,I2,F7.1,3F7.2,3X,3F7.1,F7.1,F7.2,F8.2)



                              CELIAS/MTOF/PM DATA                      SOHO ORBIT DATA              
 InSitu_Start__Time       [km/s]  [cm-3] [km/s]  [deg]      [Re]   [Re]   [Re]  [Mkm]  [deg]  [deg]
 YY MON DY DOY:HH:MM:SS   SPEED     Np     Vth    N/S      GSE_X  GSE_Y  GSE_Z  RANGE  HGLAT  HGLONG
 07 JAN  8   8:12:00:00     349    1.8      21   -3.1      209.8  100.3    0.7  145.8   -3.8   359.5
 07 JAN  8   8:13:00:00     345    1.7      21   -3.5      209.8  100.3    0.6  145.8   -3.8   359.0
 07 JAN  8   8:14:00:00     345    1.8      21   -4.4      209.9  100.3    0.6  145.8   -3.8   358.4
 07 JAN  8   8:15:00:00     344    1.7      20   -4.8      209.9  100.4    0.6  145.8   -3.8   357.9
 07 JAN  8   8:16:00:00     342    1.4      20   -4.4      210.0  100.4    0.5  145.8   -3.8   357.3
 07 JAN  8   8:17:00:00     345    1.4      21   -4.9      210.0  100.4    0.5  145.8   -3.8   356.8
 07 JAN  8   8:18:00:00     342    1.4      20   -5.3      210.1  100.4    0.5  145.8   -3.8   356.2
 07 JAN  8   8:19:00:00     346    1.6      22   -4.3      210.1  100.5    0.5  145.8   -3.8   355.7
 07 JAN  8   8:20:00:00     341    2.1      21   -5.5      210.2  100.5    0.4  145.8   -3.8   355.1
 07 JAN  8   8:21:00:00     326    2.5      20   -5.5      210.2  100.5    0.4  145.8   -3.9   354.6
 07 JAN  8   8:22:00:00     318    2.9      19   -3.7      210.3  100.5    0.4  145.8   -3.9   354.0
 07 JAN  8   8:23:00:00     306    3.7      19   -2.0      210.4  100.6    0.3  145.8   -3.9   353.5
 07 JAN  9   9:00:00:00     310    2.6      19   -1.7      210.4  100.6    0.3  145.8   -3.9   352.9
 07 JAN  9   9:01:00:00     314    1.9      19   -1.0      210.5  100.6    0.3  145.8   -3.9   352.4
 07 JAN  9   9:02:00:00     318    2.0      19   -0.9      210.5  100.6    0.3  145.8   -3.9   351.8
 07 JAN  9   9:03:00:00     313    3.3      19   -1.5      210.6  100.7    0.2  145.8   -3.9   351.3
 07 JAN  9   9:04:00:00     312    4.6      19   -1.0      210.6  100.7    0.2  145.8   -3.9   350.7
 07 JAN  9   9:05:00:00     321    4.9      20   -1.0      210.7  100.7    0.2  145.8   -3.9   350.2
 07 JAN  9   9:06:00:00     334    4.6      21   -0.6      210.7  100.7    0.1  145.8   -3.9   349.6
 07 JAN  9   9:07:00:00     337    3.7      21    1.2      210.8  100.7    0.1  145.8   -3.9   349.1
 07 JAN  9   9:08:00:00     338    3.6      20    1.0      210.8  100.8    0.1  145.8   -3.9   348.5
 07 JAN  9   9:09:00:00     331    2.7      21   -0.4      210.9  100.8    0.1  145.8   -3.9   348.0
 07 JAN  9   9:10:00:00     346    5.3      22    2.7      210.9  100.8    0.0  145.8   -3.9   347.4
 07 JAN  9   9:11:00:00     334    4.5      22    4.2      211.0  100.8    0.0  145.8   -3.9   346.9
 07 JAN  9   9:12:00:00     337    5.3      22    3.9      211.0  100.9    0.0  145.8   -3.9   346.3
 07 JAN  9   9:13:00:00     331    3.0      23    1.6      211.1  100.9   -0.1  145.8   -3.9   345.8
 07 JAN  9   9:14:00:00     343    5.0      23    1.7      211.1  100.9   -0.1  145.8   -3.9   345.2
 07 JAN  9   9:15:00:00     341    4.6      23    3.4      211.2  100.9   -0.1  145.8   -3.9   344.7
 07 JAN  9   9:16:00:00     345    3.7      25    0.7      211.2  100.9   -0.1  145.8   -3.9   344.1
 07 JAN  9   9:17:00:00     348    4.7      24   -0.1      211.3  101.0   -0.2  145.8   -3.9   343.6
 07 JAN  9   9:18:00:00     364    5.0      26    0.4      211.3  101.0   -0.2  145.8   -3.9   343.0
 07 JAN  9   9:19:00:00     374    5.8      27   -0.2      211.4  101.0   -0.2  145.8   -4.0   342.5
 07 JAN  9   9:20:00:00     375    7.8      29    3.3      211.4  101.0   -0.2  145.8   -4.0   341.9
 07 JAN  9   9:21:00:00     375    7.1      29    2.7      211.5  101.0   -0.3  145.8   -4.0   341.4
 07 JAN  9   9:22:00:00     377    5.3      29    1.5      211.5  101.1   -0.3  145.8   -4.0   340.8
 07 JAN  9   9:23:00:00     370    6.5      29    2.4      211.6  101.1   -0.3  145.8   -4.0   340.3
 07 JAN 10  10:00:00:00     376    6.0      26    3.0      211.7  101.1   -0.4  145.8   -4.0   339.7
 07 JAN 10  10:01:00:00     377    7.5      28    5.0      211.7  101.1   -0.4  145.8   -4.0   339.2
 07 JAN 10  10:02:00:00     380    6.0      28    2.4      211.8  101.1   -0.4  145.8   -4.0   338.6
 07 JAN 10  10:03:00:00     396    4.4      31    0.5      211.8  101.2   -0.4  145.8   -4.0   338.1
 07 JAN 10  10:04:00:00     395    4.0      33    1.2      211.9  101.2   -0.5  145.8   -4.0   337.5
 07 JAN 10  10:05:00:00     377    5.9      28    5.9      211.9  101.2   -0.5  145.8   -4.0   337.0
 07 JAN 10  10:06:00:00     389    5.4      29    4.8      212.0  101.2   -0.5  145.8   -4.0   336.4
 07 JAN 10  10:07:00:00     395    5.2      29    2.4      212.0  101.2   -0.6  145.8   -4.0   335.9
 07 JAN 10  10:08:00:00     400    5.0      31    1.7      212.1  101.2   -0.6  145.8   -4.0   335.3
 07 JAN 10  10:09:00:00     408    4.3      33    2.8      212.1  101.3   -0.6  145.8   -4.0   334.8
 07 JAN 10  10:10:00:00     414    4.3      34    1.4      212.2  101.3   -0.6  145.8   -4.0   334.2
 07 JAN 10  10:11:00:00     432    3.5      36    2.4      212.2  101.3   -0.7  145.8   -4.0   333.7
 07 JAN 10  10:12:00:00     423    4.2      35    3.2      212.3  101.3   -0.7  145.8   -4.0   333.1
 07 JAN 10  10:13:00:00     419    3.5      34    4.1      212.3  101.3   -0.7  145.8   -4.0   332.6
 07 JAN 10  10:14:00:00     426    3.0      36    3.1      212.4  101.3   -0.7  145.8   -4.0   332.0
 07 JAN 10  10:15:00:00     436    2.5      38    1.3      212.5  101.4   -0.8  145.8   -4.0   331.5
 07 JAN 10  10:16:00:00     459    1.6      38    0.1      212.5  101.4   -0.8  145.8   -4.0   330.9
 07 JAN 10  10:17:00:00     439    2.2      38    0.0      212.6  101.4   -0.8  145.8   -4.1   330.4
 07 JAN 10  10:18:00:00     435    2.6      36   -0.9      212.6  101.4   -0.9  145.8   -4.1   329.8
 07 JAN 10  10:19:00:00     435    3.9      35    1.4      212.7  101.4   -0.9  145.8   -4.1   329.3
 07 JAN 10  10:20:00:00     430    2.8      37   -0.6      212.7  101.4   -0.9  145.8   -4.1   328.7
 07 JAN 10  10:21:00:00     415    3.4      35   -1.3      212.8  101.5   -0.9  145.8   -4.1   328.2
 07 JAN 10  10:22:00:00     398    4.2      31   -0.7      212.8  101.5   -1.0  145.8   -4.1   327.6
 07 JAN 10  10:23:00:00     414    3.7      35   -0.4      212.9  101.5   -1.0  145.8   -4.1   327.1
 07 JAN 11  11:00:00:00     418    5.4      34   -4.7      212.9  101.5   -1.0  145.8   -4.1   326.5
 07 JAN 11  11:01:00:00     426    5.6      35   -3.0      213.0  101.5   -1.1  145.8   -4.1   326.0
 07 JAN 11  11:02:00:00     422    5.9      36   -2.0      213.0  101.5   -1.1  145.8   -4.1   325.4
 07 JAN 11  11:03:00:00     430    6.2      37   -1.4      213.1  101.5   -1.1  145.8   -4.1   324.9
 07 JAN 11  11:04:00:00     437    7.9      36    0.7      213.2  101.6   -1.1  145.8   -4.1   324.3
 07 JAN 11  11:05:00:00     440    8.9      37   -1.0      213.2  101.6   -1.2  145.8   -4.1   323.8
 07 JAN 11  11:06:00:00     454    9.3      36   -2.8      213.3  101.6   -1.2  145.8   -4.1   323.2
 07 JAN 11  11:07:00:00     490    4.1      41   -0.8      213.3  101.6   -1.2  145.8   -4.1   322.7
 07 JAN 11  11:08:00:00     473    5.1      37   -2.7      213.4  101.6   -1.3  145.8   -4.1   322.1
 07 JAN 11  11:09:00:00     480    4.1      40    1.0      213.4  101.6   -1.3  145.8   -4.1   321.6
 07 JAN 11  11:10:00:00     495    3.1      44   -0.9      213.5  101.6   -1.3  145.8   -4.1   321.0
 07 JAN 11  11:11:00:00     523    2.3      45    0.4      213.5  101.7   -1.3  145.8   -4.1   320.5
 07 JAN 11  11:12:00:00     528    1.7      45   -2.0      213.6  101.7   -1.4  145.8   -4.1   319.9
 07 JAN 11  11:13:00:00     505    2.2      42    0.6      213.6  101.7   -1.4  145.8   -4.1   319.4
 07 JAN 11  11:14:00:00     508    2.1      41    2.5      213.7  101.7   -1.4  145.8   -4.1   318.8
 07 JAN 11  11:15:00:00     523    1.4      44   -1.2      213.8  101.7   -1.4  145.8   -4.2   318.3
 07 JAN 11  11:16:00:00     530    1.8      44    2.0      213.8  101.7   -1.5  145.8   -4.2   317.7
 07 JAN 11  11:17:00:00     520    1.8      43    2.4      213.9  101.7   -1.5  145.8   -4.2   317.2
 07 JAN 11  11:18:00:00     528    1.7      44    0.8      213.9  101.7   -1.5  145.8   -4.2   316.6
 07 JAN 11  11:19:00:00     538    1.5      44   -1.9      214.0  101.8   -1.6  145.8   -4.2   316.1
 07 JAN 11  11:20:00:00     530    1.6      43   -0.7      214.0  101.8   -1.6  145.8   -4.2   315.5
 07 JAN 11  11:21:00:00     527    1.2      46   -2.0      214.1  101.8   -1.6  145.8   -4.2   315.0
 07 JAN 11  11:22:00:00     535    1.3      46    4.4      214.1  101.8   -1.6  145.8   -4.2   314.4
 07 JAN 11  11:23:00:00     509    1.0      43    1.4      214.2  101.8   -1.7  145.8   -4.2   313.9
 07 JAN 12  12:00:00:00     486    1.0      39   -3.2      214.3  101.8   -1.7  145.8   -4.2   313.3
 07 JAN 12  12:01:00:00     472    0.9      36   -0.5      214.3  101.8   -1.7  145.8   -4.2   312.8
 07 JAN 12  12:02:00:00     473    0.9      35   -0.8      214.4  101.8   -1.8  145.8   -4.2   312.2
 07 JAN 12  12:03:00:00     466    0.7      33   -0.2      214.4  101.8   -1.8  145.8   -4.2   311.7
 07 JAN 12  12:04:00:00     448    0.6      32    1.4      214.5  101.9   -1.8  145.8   -4.2   311.1
 07 JAN 12  12:05:00:00     444    0.6      32    2.5      214.5  101.9   -1.8  145.8   -4.2   310.6
 07 JAN 12  12:06:00:00     476    0.7      38   -0.3      214.6  101.9   -1.9  145.8   -4.2   310.0
 07 JAN 12  12:07:00:00     453    0.6      34    1.4      214.6  101.9   -1.9  145.8   -4.2   309.5
 07 JAN 12  12:08:00:00     459    0.6      38    2.8      214.7  101.9   -1.9  145.8   -4.2   308.9
 07 JAN 12  12:09:00:00     508    0.8      44   -7.8      214.8  101.9   -1.9  145.8   -4.2   308.4
 07 JAN 12  12:10:00:00     476    0.8      44   -3.7      214.8  101.9   -2.0  145.8   -4.2   307.8
 07 JAN 12  12:11:00:00     429    0.6      38   -2.9      214.9  101.9   -2.0  145.8   -4.2   307.3
 07 JAN 12  12:12:00:00     427    0.6      39   -1.0      214.9  101.9   -2.0  145.8   -4.2   306.7
 07 JAN 12  12:13:00:00     419    0.7      38    4.4      215.0  101.9   -2.1  145.8   -4.3   306.2
 07 JAN 12  12:14:00:00     405    0.7      35    2.7      215.0  101.9   -2.1  145.8   -4.3   305.6
 07 JAN 12  12:15:00:00     405    0.7      36    3.9      215.1  101.9   -2.1  145.8   -4.3   305.1
 07 JAN 12  12:16:00:00     398    0.8      35   -0.5      215.1  102.0   -2.1  145.8   -4.3   304.5
 07 JAN 12  12:17:00:00     401    1.1      34   -5.6      215.2  102.0   -2.2  145.8   -4.3   304.0
 07 JAN 12  12:18:00:00     475    0.9      41   -7.8      215.3  102.0   -2.2  145.8   -4.3   303.4
 07 JAN 12  12:19:00:00     454    1.1      39   -8.0      215.3  102.0   -2.2  145.8   -4.3   302.9
 07 JAN 12  12:20:00:00     455    0.9      40   -8.1      215.4  102.0   -2.3  145.8   -4.3   302.3
 07 JAN 12  12:21:00:00     399    1.1      34   -8.1      215.4  102.0   -2.3  145.8   -4.3   301.8
 07 JAN 12  12:22:00:00     398    0.7      37   -5.0      215.5  102.0   -2.3  145.8   -4.3   301.2
 07 JAN 12  12:23:00:00     398    0.7      36   -6.9      215.5  102.0   -2.3  145.8   -4.3   300.7
 07 JAN 13  13:00:00:00     376    0.6      34   -4.1      215.6  102.0   -2.4  145.8   -4.3   300.1
 07 JAN 13  13:01:00:00     368    0.3      32   -3.0      215.6  102.0   -2.4  145.8   -4.3   299.6
 07 JAN 13  13:02:00:00     371    0.5      34   -2.4      215.7  102.0   -2.4  145.8   -4.3   299.0
 07 JAN 13  13:03:00:00     378    0.6      33   -6.1      215.8  102.0   -2.4  145.8   -4.3   298.5
 07 JAN 13  13:04:00:00     355    0.5      29   -1.8      215.8  102.0   -2.5  145.8   -4.3   297.9
 07 JAN 13  13:05:00:00     374    0.5      36    3.3      215.9  102.0   -2.5  145.8   -4.3   297.4
 07 JAN 13  13:06:00:00     375    0.4      36    2.0      215.9  102.0   -2.5  145.8   -4.3   296.8
 07 JAN 13  13:07:00:00     369    0.4      35    2.1      216.0  102.1   -2.6  145.8   -4.3   296.3
 07 JAN 13  13:08:00:00     368    0.4      34   -1.0      216.0  102.1   -2.6  145.8   -4.3   295.7
 07 JAN 13  13:09:00:00     354    0.5      30   -1.0      216.1  102.1   -2.6  145.8   -4.3   295.2
 07 JAN 13  13:10:00:00     333    0.4      23   -4.8      216.2  102.1   -2.6  145.8   -4.3   294.6
 07 JAN 13  13:11:00:00     346    0.4      27   -6.0      216.2  102.1   -2.7  145.8   -4.3   294.1
 07 JAN 13  13:12:00:00     341    0.4      25   -5.3      216.3  102.1   -2.7  145.8   -4.4   293.5
 07 JAN 13  13:13:00:00     340    0.4      25   -5.0      216.3  102.1   -2.7  145.8   -4.4   293.0
 07 JAN 13  13:14:00:00     340    0.5      26   -3.1      216.4  102.1   -2.7  145.8   -4.4   292.4
 07 JAN 13  13:15:00:00     360    0.5      33   -3.3      216.4  102.1   -2.8  145.8   -4.4   291.9
 07 JAN 13  13:16:00:00     354    0.4      30   -2.4      216.5  102.1   -2.8  145.8   -4.4   291.3
 07 JAN 13  13:17:00:00     337    0.6      22   -1.3      216.6  102.1   -2.8  145.8   -4.4   290.8
 07 JAN 13  13:18:00:00     336    0.9      20   -1.0      216.6  102.1   -2.9  145.8   -4.4   290.2
 07 JAN 13  13:19:00:00     338    1.3      19   -0.7      216.7  102.1   -2.9  145.8   -4.4   289.7
 07 JAN 13  13:20:00:00     343    1.2      21   -0.9      216.7  102.1   -2.9  145.8   -4.4   289.1
 07 JAN 13  13:21:00:00     346    1.1      22   -1.1      216.8  102.1   -2.9  145.8   -4.4   288.6
 07 JAN 13  13:22:00:00     348    1.0      23   -1.4      216.8  102.1   -3.0  145.8   -4.4   288.0
 07 JAN 13  13:23:00:00     342    0.7      24   -1.5      216.9  102.1   -3.0  145.8   -4.4   287.5
 07 JAN 14  14:00:00:00     332    0.7      21   -1.7      216.9  102.1   -3.0  145.8   -4.4   286.9
 07 JAN 14  14:01:00:00     335    1.1      21   -2.0      217.0  102.1   -3.0  145.8   -4.4   286.4
 07 JAN 14  14:02:00:00     340    1.9      21   -0.6      217.1  102.1   -3.1  145.8   -4.4   285.8
 07 JAN 14  14:03:00:00     346    1.3      22   -0.6      217.1  102.1   -3.1  145.8   -4.4   285.3
 07 JAN 14  14:04:00:00     345    1.7      21   -0.9      217.2  102.1   -3.1  145.8   -4.4   284.7
 07 JAN 14  14:05:00:00     341    2.3      22   -1.9      217.2  102.1   -3.2  145.8   -4.4   284.2
 07 JAN 14  14:06:00:00     341    4.4      18   -5.0      217.3  102.1   -3.2  145.8   -4.4   283.6
 07 JAN 14  14:07:00:00     315    1.7      19   -4.2      217.3  102.1   -3.2  145.8   -4.4   283.1
 07 JAN 14  14:08:00:00     302    0.5      19    1.1      217.4  102.1   -3.2  145.8   -4.4   282.5
 07 JAN 14  14:09:00:00     297    0.5      19   -1.1      217.5  102.1   -3.3  145.8   -4.4   282.0
 07 JAN 14  14:10:00:00     287    0.6      17    0.5      217.5  102.1   -3.3  145.8   -4.4   281.4
 07 JAN 14  14:11:00:00     336    2.4      16   -1.6      217.6  102.1   -3.3  145.8   -4.5   280.9
 07 JAN 14  14:12:00:00     346    3.4      11    0.2      217.6  102.1   -3.3  145.8   -4.5   280.3
 07 JAN 14  14:13:00:00     350    4.7      13   -2.5      217.7  102.1   -3.4  145.8   -4.5   279.8
 07 JAN 14  14:14:00:00     348    3.4      16   -2.5      217.7  102.1   -3.4  145.8   -4.5   279.2
 07 JAN 14  14:15:00:00     355    3.8      20   -4.2      217.8  102.1   -3.4  145.8   -4.5   278.7
 07 JAN 14  14:16:00:00     366    3.7      24   -4.7      217.9  102.1   -3.5  145.8   -4.5   278.1
 07 JAN 14  14:17:00:00     368    2.6      24   -7.4      217.9  102.1   -3.5  145.8   -4.5   277.6
 07 JAN 14  14:18:00:00     359    2.3      27   -7.5      218.0  102.1   -3.5  145.8   -4.5   277.0
 07 JAN 14  14:19:00:00     364    1.8      33   -4.7      218.0  102.1   -3.5  145.8   -4.5   276.5
 07 JAN 14  14:20:00:00     346    3.0      32   -2.8      218.1  102.1   -3.6  145.8   -4.5   275.9
 07 JAN 14  14:21:00:00     314    5.6      24   -2.5      218.1  102.1   -3.6  145.8   -4.5   275.4
 07 JAN 14  14:22:00:00     305    5.4      21   -1.6      218.2  102.1   -3.6  145.8   -4.5   274.8
 07 JAN 14  14:23:00:00     301    5.0      20   -0.8      218.3  102.1   -3.6  145.8   -4.5   274.3
 07 JAN 15  15:00:00:00     306    3.8      21   -1.1      218.3  102.1   -3.7  145.8   -4.5   273.7
 07 JAN 15  15:01:00:00     323    2.3      25   -1.6      218.4  102.1   -3.7  145.8   -4.5   273.2
 07 JAN 15  15:02:00:00     327    5.5      25   -4.8      218.4  102.1   -3.7  145.8   -4.5   272.6
 07 JAN 15  15:03:00:00     341    9.4      28   -7.9      218.5  102.1   -3.8  145.8   -4.5   272.1
 07 JAN 15  15:04:00:00     346    7.0      29   -8.1      218.5  102.1   -3.8  145.8   -4.5   271.5
 07 JAN 15  15:05:00:00     346    3.9      30   -6.9      218.6  102.1   -3.8  145.8   -4.5   271.0
 07 JAN 15  15:06:00:00     342   10.7      26   -6.4      218.7  102.1   -3.8  145.8   -4.5   270.4
 07 JAN 15  15:07:00:00     375   22.6      32   -6.4      218.7  102.1   -3.9  145.8   -4.5   269.9
 07 JAN 15  15:08:00:00     400   18.0      35   -6.7      218.8  102.1   -3.9  145.8   -4.5   269.3
 07 JAN 15  15:09:00:00     447    8.1      43   -5.4      218.8  102.1   -3.9  145.8   -4.5   268.8
 07 JAN 15  15:10:00:00     525    5.3      42   -5.1      218.9  102.1   -3.9  145.8   -4.5   268.2
 07 JAN 15  15:11:00:00     555    4.4      45   -4.6      218.9  102.1   -4.0  145.8   -4.6   267.7
 07 JAN 15  15:12:00:00     556    5.0      48   -1.6      219.0  102.1   -4.0  145.8   -4.6   267.1
 07 JAN 15  15:13:00:00     596    5.1      52   -5.9      219.0  102.1   -4.0  145.8   -4.6   266.6
 07 JAN 15  15:14:00:00     633    4.0      58   -6.9      219.1  102.1   -4.1  145.8   -4.6   266.0
 07 JAN 15  15:15:00:00     665    2.4      54   -7.5      219.2  102.1   -4.1  145.8   -4.6   265.5
 07 JAN 15  15:16:00:00     642    2.4      52   -7.3      219.2  102.1   -4.1  145.8   -4.6   264.9
 07 JAN 15  15:17:00:00     623    2.1      52   -6.2      219.3  102.1   -4.1  145.8   -4.6   264.4
 07 JAN 15  15:18:00:00     585    2.7      47   -4.2      219.3  102.0   -4.2  145.8   -4.6   263.8
 07 JAN 15  15:19:00:00     497    5.5      42   -4.8      219.4  102.0   -4.2  145.8   -4.6   263.3
 07 JAN 15  15:20:00:00     491    5.3      39   -4.8      219.4  102.0   -4.2  145.8   -4.6   262.7
 07 JAN 15  15:21:00:00     546    3.0      34   -0.6      219.5  102.0   -4.2  145.8   -4.6   262.2
 07 JAN 15  15:22:00:00     556    2.5      37   -2.3      219.6  102.0   -4.3  145.8   -4.6   261.6
 07 JAN 15  15:23:00:00     554    2.2      36   -1.5      219.6  102.0   -4.3  145.8   -4.6   261.1
 07 JAN 16  16:00:00:00     557    1.5      40   -1.5      219.7  102.0   -4.3  145.8   -4.6   260.5
 07 JAN 16  16:01:00:00     563    1.2      42   -0.2      219.7  102.0   -4.3  145.8   -4.6   260.0
 07 JAN 16  16:02:00:00     570    1.3      44    0.4      219.8  102.0   -4.4  145.8   -4.6   259.4
 07 JAN 16  16:03:00:00     567    3.5      39    0.0      219.8  102.0   -4.4  145.8   -4.6   258.9
 07 JAN 16  16:04:00:00     581    4.2      42    0.6      219.9  102.0   -4.4  145.8   -4.6   258.3
 07 JAN 16  16:05:00:00     589    4.2      43    0.3      220.0  102.0   -4.5  145.8   -4.6   257.8
 07 JAN 16  16:06:00:00     593    5.0      44    0.9      220.0  102.0   -4.5  145.8   -4.6   257.2
 07 JAN 16  16:07:00:00     597    4.4      46   -0.1      220.1  102.0   -4.5  145.8   -4.6   256.7
 07 JAN 16  16:08:00:00     603    3.7      48   -0.9      220.1  101.9   -4.5  145.8   -4.6   256.1
 07 JAN 16  16:09:00:00     615    2.7      50   -0.5      220.2  101.9   -4.6  145.8   -4.6   255.6
 07 JAN 16  16:10:00:00     608    3.0      48   -0.7      220.2  101.9   -4.6  145.8   -4.7   255.0
 07 JAN 16  16:11:00:00     612    3.4      50   -0.7      220.3  101.9   -4.6  145.8   -4.7   254.5
 07 JAN 16  16:12:00:00     640    2.5      52    0.9      220.4  101.9   -4.6  145.8   -4.7   253.9
 07 JAN 16  16:13:00:00     664    2.1      53    1.0      220.4  101.9   -4.7  145.8   -4.7   253.4
 07 JAN 16  16:14:00:00     648    2.4      53    1.9      220.5  101.9   -4.7  145.8   -4.7   252.8
 07 JAN 16  16:15:00:00     618    2.4      50    1.4      220.5  101.9   -4.7  145.8   -4.7   252.3
 07 JAN 16  16:16:00:00     620    2.9      49    2.4      220.6  101.9   -4.7  145.8   -4.7   251.7
 07 JAN 16  16:17:00:00     594    4.3      44    3.0      220.6  101.9   -4.8  145.8   -4.7   251.2
 07 JAN 16  16:18:00:00     576    6.5      45    1.3      220.7  101.9   -4.8  145.8   -4.7   250.6
 07 JAN 16  16:19:00:00     603    5.6      52    3.8      220.7  101.8   -4.8  145.8   -4.7   250.1
 07 JAN 16  16:20:00:00     638    4.4      56    4.8      220.8  101.8   -4.9  145.8   -4.7   249.5
 07 JAN 16  16:21:00:00     656    5.6      56    5.5      220.9  101.8   -4.9  145.8   -4.7   249.0
 07 JAN 16  16:22:00:00     688    4.7      59    5.7      220.9  101.8   -4.9  145.8   -4.7   248.4
 07 JAN 16  16:23:00:00     682    3.9      59    5.2      221.0  101.8   -4.9  145.8   -4.7   247.9
 07 JAN 17  17:00:00:00     675    4.0      59    3.7      221.0  101.8   -5.0  145.8   -4.7   247.3
 07 JAN 17  17:01:00:00     663    3.6      56    3.0      221.1  101.8   -5.0  145.8   -4.7   246.8
 07 JAN 17  17:02:00:00     670    5.2      57    5.0      221.1  101.8   -5.0  145.8   -4.7   246.2
 07 JAN 17  17:03:00:00     655    4.4      56    2.6      221.2  101.8   -5.0  145.8   -4.7   245.7
 07 JAN 17  17:04:00:00     664    3.4      52    1.4      221.3  101.7   -5.1  145.8   -4.7   245.1
 07 JAN 17  17:05:00:00     606    4.0      50    0.7      221.3  101.7   -5.1  145.8   -4.7   244.6
 07 JAN 17  17:06:00:00     631    4.3      53    1.7      221.4  101.7   -5.1  145.8   -4.7   244.0
 07 JAN 17  17:07:00:00     672    3.1      57    0.1      221.4  101.7   -5.1  145.8   -4.7   243.5
 07 JAN 17  17:08:00:00     653    2.7      55    0.1      221.5  101.7   -5.2  145.8   -4.7   242.9
 07 JAN 17  17:09:00:00     649    2.6      56    0.1      221.5  101.7   -5.2  145.8   -4.7   242.4
 07 JAN 17  17:10:00:00     669    2.7      59    1.0      221.6  101.7   -5.2  145.8   -4.8   241.8
 07 JAN 17  17:11:00:00     678    2.7      59   -0.1      221.6  101.7   -5.2  145.8   -4.8   241.3
 07 JAN 17  17:12:00:00     691    2.5      55    1.0      221.7  101.6   -5.3  145.8   -4.8   240.7
 07 JAN 17  17:13:00:00     676    2.7      55    1.8      221.8  101.6   -5.3  145.8   -4.8   240.2
 07 JAN 17  17:14:00:00     696    3.0      60    0.9      221.8  101.6   -5.3  145.8   -4.8   239.6
 07 JAN 17  17:15:00:00     655    3.6      55    2.5      221.9  101.6   -5.4  145.8   -4.8   239.1
 07 JAN 17  17:16:00:00     683    3.1      59    0.0      221.9  101.6   -5.4  145.8   -4.8   238.5
 07 JAN 17  17:17:00:00     655    3.2      55   -0.2      222.0  101.6   -5.4  145.8   -4.8   238.0
 07 JAN 17  17:18:00:00     671    2.9      55    1.0      222.0  101.6   -5.4  145.8   -4.8   237.4
 07 JAN 17  17:19:00:00     693    2.9      56    0.6      222.1  101.5   -5.5  145.8   -4.8   236.9
 07 JAN 17  17:20:00:00     680    2.7      56    0.0      222.2  101.5   -5.5  145.8   -4.8   236.3
 07 JAN 17  17:21:00:00     697    2.9      56    1.8      222.2  101.5   -5.5  145.8   -4.8   235.8
 07 JAN 17  17:22:00:00     724    3.4      52    2.9      222.3  101.5   -5.5  145.8   -4.8   235.2
 07 JAN 17  17:23:00:00     666    3.0      54    1.4      222.3  101.5   -5.6  145.8   -4.8   234.7
 07 JAN 18  18:00:00:00     631    3.5      52    1.4      222.4  101.5   -5.6  145.8   -4.8   234.1
 07 JAN 18  18:01:00:00     621    3.5      51    0.4      222.4  101.4   -5.6  145.8   -4.8   233.6
 07 JAN 18  18:02:00:00     592    4.1      44    2.2      222.5  101.4   -5.6  145.8   -4.8   233.0
 07 JAN 18  18:03:00:00     601    3.8      45    3.0      222.5  101.4   -5.7  145.8   -4.8   232.5
 07 JAN 18  18:04:00:00     599    2.6      44    1.0      222.6  101.4   -5.7  145.8   -4.8   231.9
 07 JAN 18  18:05:00:00     577    2.3      40   -1.5      222.7  101.4   -5.7  145.8   -4.8   231.4
 07 JAN 18  18:06:00:00     587    2.4      44    0.1      222.7  101.4   -5.7  145.8   -4.8   230.8
 07 JAN 18  18:07:00:00     591    2.5      45   -0.3      222.8  101.3   -5.8  145.8   -4.8   230.3
 07 JAN 18  18:08:00:00     588    2.9      44   -0.5      222.8  101.3   -5.8  145.8   -4.8   229.7
 07 JAN 18  18:09:00:00     590    3.1      45   -0.4      222.9  101.3   -5.8  145.8   -4.8   229.2
 07 JAN 18  18:10:00:00     598    2.9      46    0.5      222.9  101.3   -5.8  145.8   -4.8   228.6
 07 JAN 18  18:11:00:00     607    2.8      48   -0.8      223.0  101.3   -5.9  145.8   -4.9   228.1
 07 JAN 18  18:12:00:00     599    3.0      47   -0.2      223.0  101.3   -5.9  145.8   -4.9   227.5
 07 JAN 18  18:13:00:00     597    2.8      46   -2.0      223.1  101.2   -5.9  145.8   -4.9   227.0
 07 JAN 18  18:14:00:00     608    2.6      48   -2.7      223.1  101.2   -5.9  145.8   -4.9   226.4
 07 JAN 18  18:15:00:00     601    2.8      45    2.6      223.2  101.2   -6.0  145.8   -4.9   225.9
 07 JAN 18  18:16:00:00     571    3.6      38    1.6      223.3  101.2   -6.0  145.8   -4.9   225.3
 07 JAN 18  18:17:00:00     584    3.5      43   -0.4      223.3  101.2   -6.0  145.8   -4.9   224.8
 07 JAN 18  18:18:00:00     589    3.5      45    0.9      223.4  101.1   -6.1  145.8   -4.9   224.2
 07 JAN 18  18:19:00:00     615    3.0      50    1.5      223.4  101.1   -6.1  145.8   -4.9   223.7
 07 JAN 18  18:20:00:00     620    2.9      50    1.2      223.5  101.1   -6.1  145.8   -4.9   223.1
 07 JAN 18  18:21:00:00     628    2.7      51    0.3      223.5  101.1   -6.1  145.8   -4.9   222.6
 07 JAN 18  18:22:00:00     629    3.0      52    0.8      223.6  101.1   -6.2  145.8   -4.9   222.0
 07 JAN 18  18:23:00:00     642    2.7      54    1.6      223.6  101.0   -6.2  145.8   -4.9   221.5
 07 JAN 19  19:00:00:00     628    2.8      52    1.2      223.7  101.0   -6.2  145.8   -4.9   220.9
 07 JAN 19  19:01:00:00     649    2.2      54   -0.2      223.8  101.0   -6.2  145.8   -4.9   220.4
 07 JAN 19  19:02:00:00     695    2.1      54   -1.5      223.8  101.0   -6.3  145.8   -4.9   219.8
 07 JAN 19  19:03:00:00     620    2.7      51    0.5      223.9  101.0   -6.3  145.8   -4.9   219.3
 07 JAN 19  19:04:00:00     612    2.7      51   -1.3      223.9  100.9   -6.3  145.8   -4.9   218.7
 07 JAN 19  19:05:00:00     614    1.8      47    0.9      224.0  100.9   -6.3  145.8   -4.9   218.2
 07 JAN 19  19:06:00:00     581    2.8      40    0.4      224.0  100.9   -6.4  145.8   -4.9   217.6
 07 JAN 19  19:07:00:00     593    2.8      47    0.9      224.1  100.9   -6.4  145.8   -4.9   217.1
 07 JAN 19  19:08:00:00     601    2.7      47   -1.0      224.1  100.8   -6.4  145.8   -4.9   216.5
 07 JAN 19  19:09:00:00     634    2.1      51    0.7      224.2  100.8   -6.4  145.8   -4.9   216.0
 07 JAN 19  19:10:00:00     614    2.1      47   -0.9      224.2  100.8   -6.5  145.8   -4.9   215.4
 07 JAN 19  19:11:00:00     618    2.4      48   -2.3      224.3  100.8   -6.5  145.8   -5.0   214.9
 07 JAN 19  19:12:00:00     605    2.5      47   -0.7      224.4  100.7   -6.5  145.8   -5.0   214.3
 07 JAN 19  19:13:00:00     624    2.5      52   -0.8      224.4  100.7   -6.5  145.8   -5.0   213.8
 07 JAN 19  19:14:00:00     612    2.3      49    0.6      224.5  100.7   -6.6  145.8   -5.0   213.2
 07 JAN 19  19:15:00:00     603    2.5      48    0.5      224.5  100.7   -6.6  145.8   -5.0   212.7
 07 JAN 19  19:16:00:00     585    3.1      44   -1.5      224.6  100.7   -6.6  145.8   -5.0   212.1
 07 JAN 19  19:17:00:00     612    2.7      47   -4.1      224.6  100.6   -6.6  145.8   -5.0   211.6
 07 JAN 19  19:18:00:00     611    2.7      50   -2.8      224.7  100.6   -6.7  145.8   -5.0   211.0
 07 JAN 19  19:19:00:00     621    2.4      51   -1.8      224.7  100.6   -6.7  145.8   -5.0   210.5
 07 JAN 19  19:20:00:00     662    1.8      57   -1.5      224.8  100.6   -6.7  145.8   -5.0   209.9
 07 JAN 19  19:21:00:00     633    1.7      53   -1.0      224.8  100.5   -6.7  145.8   -5.0   209.4
 07 JAN 19  19:22:00:00     599    2.1      47   -0.4      224.9  100.5   -6.8  145.8   -5.0   208.8
 07 JAN 19  19:23:00:00     593    2.3      45   -0.7      224.9  100.5   -6.8  145.8   -5.0   208.3
 07 JAN 20  20:00:00:00     586    2.2      44   -1.0      225.0  100.4   -6.8  145.8   -5.0   207.7
 07 JAN 20  20:01:00:00     594    2.0      45   -0.2      225.1  100.4   -6.8  145.8   -5.0   207.2
 07 JAN 20  20:02:00:00     603    1.6      47   -1.3      225.1  100.4   -6.9  145.8   -5.0   206.6
 07 JAN 20  20:03:00:00     617    1.6      50   -0.6      225.2  100.4   -6.9  145.8   -5.0   206.1
 07 JAN 20  20:04:00:00     604    1.9      48    0.4      225.2  100.3   -6.9  145.8   -5.0   205.5
 07 JAN 20  20:05:00:00     602    2.0      48   -0.4      225.3  100.3   -6.9  145.8   -5.0   205.0
 07 JAN 20  20:06:00:00     586    2.5      44   -1.0      225.3  100.3   -7.0  145.8   -5.0   204.4
 07 JAN 20  20:07:00:00     578    2.5      41   -2.4      225.4  100.3   -7.0  145.8   -5.0   203.9
 07 JAN 20  20:08:00:00     577    2.4      40   -3.1      225.4  100.2   -7.0  145.8   -5.0   203.3
 07 JAN 20  20:09:00:00     574    2.1      39   -1.8      225.5  100.2   -7.0  145.8   -5.0   202.8
 07 JAN 20  20:10:00:00     572    2.0      38   -1.0      225.5  100.2   -7.1  145.8   -5.0   202.2
 07 JAN 20  20:11:00:00     573    2.2      39    0.0      225.6  100.1   -7.1  145.8   -5.0   201.7
 07 JAN 20  20:12:00:00     572    2.4      38   -3.1      225.6  100.1   -7.1  145.8   -5.0   201.1
 07 JAN 20  20:13:00:00     570    2.0      38   -0.8      225.7  100.1   -7.1  145.8   -5.1   200.6
 07 JAN 20  20:14:00:00     567    1.9      36   -0.3      225.7  100.1   -7.2  145.8   -5.1   200.0
 07 JAN 20  20:15:00:00     568    1.8      36   -0.9      225.8  100.0   -7.2  145.8   -5.1   199.5
 07 JAN 20  20:16:00:00     565    1.5      34   -1.0      225.8  100.0   -7.2  145.8   -5.1   198.9
 07 JAN 20  20:17:00:00     565    2.0      34   -0.3      225.9  100.0   -7.2  145.8   -5.1   198.4
 07 JAN 20  20:18:00:00     562    2.0      34   -1.4      226.0   99.9   -7.3  145.8   -5.1   197.8
 07 JAN 20  20:19:00:00     557    1.8      32    0.1      226.0   99.9   -7.3  145.8   -5.1   197.3
 07 JAN 20  20:20:00:00     566    1.9      37   -0.3      226.1   99.9   -7.3  145.8   -5.1   196.7
 07 JAN 20  20:21:00:00     565    1.9      38   -1.3      226.1   99.8   -7.3  145.8   -5.1   196.2
 07 JAN 20  20:22:00:00     563    2.3      36   -0.5      226.2   99.8   -7.4  145.8   -5.1   195.6
 07 JAN 20  20:23:00:00     564    2.5      37    0.9      226.2   99.8   -7.4  145.8   -5.1   195.1
 07 JAN 21  21:00:00:00     562    2.2      36   -1.1      226.3   99.7   -7.4  145.8   -5.1   194.5
 07 JAN 21  21:01:00:00     557    2.3      35    1.8      226.3   99.7   -7.4  145.8   -5.1   194.0
 07 JAN 21  21:02:00:00     554    1.6      39    0.3      226.4   99.7   -7.5  145.8   -5.1   193.4
 07 JAN 21  21:03:00:00     547    1.4      43   -2.6      226.4   99.6   -7.5  145.8   -5.1   192.9
 07 JAN 21  21:04:00:00     544    1.4      43   -1.8      226.5   99.6   -7.5  145.8   -5.1   192.3
 07 JAN 21  21:05:00:00     544    1.5      42   -1.5      226.5   99.6   -7.5  145.8   -5.1   191.8
 07 JAN 21  21:06:00:00     525    1.5      44   -0.5      226.6   99.5   -7.6  145.8   -5.1   191.2
 07 JAN 21  21:07:00:00     523    1.4      42   -1.5      226.6   99.5   -7.6  145.8   -5.1   190.7
 07 JAN 21  21:08:00:00     517    1.4      41   -2.9      226.7   99.5   -7.6  145.8   -5.1   190.1
 07 JAN 21  21:09:00:00     499    1.6      39   -1.8      226.7   99.4   -7.6  145.8   -5.1   189.6
 07 JAN 21  21:10:00:00     477    2.0      34   -1.5      226.8   99.4   -7.7  145.8   -5.1   189.0
 07 JAN 21  21:11:00:00     473    2.0      33   -1.1      226.8   99.4   -7.7  145.8   -5.1   188.5
 07 JAN 21  21:12:00:00     465    2.7      30   -2.1      226.9   99.3   -7.7  145.8   -5.1   187.9
 07 JAN 21  21:13:00:00     464    2.6      29   -1.5      226.9   99.3   -7.7  145.8   -5.1   187.4
 07 JAN 21  21:14:00:00     466    2.4      30   -1.2      227.0   99.3   -7.8  145.8   -5.2   186.8
 07 JAN 21  21:15:00:00     464    2.4      30   -1.0      227.1   99.2   -7.8  145.8   -5.2   186.3
 07 JAN 21  21:16:00:00     462    2.5      29   -2.0      227.1   99.2   -7.8  145.8   -5.2   185.7
 07 JAN 21  21:17:00:00     463    2.9      29   -2.8      227.2   99.2   -7.8  145.8   -5.2   185.2
 07 JAN 21  21:18:00:00     458    3.5      26   -1.7      227.2   99.1   -7.9  145.8   -5.2   184.6
 07 JAN 21  21:19:00:00     456    3.5      25   -0.5      227.3   99.1   -7.9  145.8   -5.2   184.1
 07 JAN 21  21:20:00:00     459    3.2      26   -2.0      227.3   99.1   -7.9  145.8   -5.2   183.5
 07 JAN 21  21:21:00:00     451    3.3      22   -0.7      227.4   99.0   -7.9  145.8   -5.2   183.0
 07 JAN 21  21:22:00:00     452    3.7      23   -2.8      227.4   99.0   -8.0  145.8   -5.2   182.4
 07 JAN 21  21:23:00:00     451    3.0      22   -0.9      227.5   98.9   -8.0  145.8   -5.2   181.9
 07 JAN 22  22:00:00:00     456    2.8      26    0.1      227.5   98.9   -8.0  145.8   -5.2   181.3
 07 JAN 22  22:01:00:00     462    2.3      30   -1.4      227.6   98.9   -8.0  145.8   -5.2   180.8
 07 JAN 22  22:02:00:00     457    2.8      27    0.4      227.6   98.8   -8.1  145.8   -5.2   180.2
 07 JAN 22  22:03:00:00     455    3.2      26    0.5      227.7   98.8   -8.1  145.8   -5.2   179.7
 07 JAN 22  22:04:00:00     454    2.7      26    0.0      227.7   98.7   -8.1  145.8   -5.2   179.1
 07 JAN 22  22:05:00:00     453    2.5      26   -0.8      227.8   98.7   -8.1  145.8   -5.2   178.6
 07 JAN 22  22:06:00:00     457    3.0      28   -2.2      227.8   98.7   -8.2  145.8   -5.2   178.0
 07 JAN 22  22:07:00:00     457    3.2      27   -1.5      227.9   98.6   -8.2  145.8   -5.2   177.5
 07 JAN 22  22:08:00:00     449    2.9      24   -1.8      227.9   98.6   -8.2  145.8   -5.2   176.9
 07 JAN 22  22:09:00:00     450    3.1      25   -2.0      228.0   98.5   -8.2  145.8   -5.2   176.4
 07 JAN 22  22:10:00:00     456    3.4      26   -1.8      228.0   98.5   -8.2  145.8   -5.2   175.8
 07 JAN 22  22:11:00:00     451    3.4      22   -1.9      228.1   98.5   -8.3  145.8   -5.2   175.3
 07 JAN 22  22:12:00:00     449    3.1      21   -1.7      228.1   98.4   -8.3  145.8   -5.2   174.7
 07 JAN 22  22:13:00:00     448    2.8      19   -1.8      228.2   98.4   -8.3  145.8   -5.2   174.2
 07 JAN 22  22:14:00:00     447    2.5      20   -1.7      228.2   98.3   -8.3  145.8   -5.2   173.6
 07 JAN 22  22:15:00:00     448    2.8      22   -1.9      228.3   98.3   -8.4  145.8   -5.2   173.1
 07 JAN 22  22:16:00:00     446    2.1      25   -2.3      228.3   98.3   -8.4  145.8   -5.3   172.5
 07 JAN 22  22:17:00:00     446    1.9      25   -2.6      228.4   98.2   -8.4  145.8   -5.3   172.0
 07 JAN 22  22:18:00:00     437    1.7      28   -2.8      228.4   98.2   -8.4  145.8   -5.3   171.4
 07 JAN 22  22:19:00:00     446    1.6      25   -2.2      228.5   98.1   -8.5  145.8   -5.3   170.9
 07 JAN 22  22:20:00:00     440    1.7      27   -2.6      228.5   98.1   -8.5  145.8   -5.3   170.3
 07 JAN 22  22:21:00:00     430    1.2      30   -2.7      228.6   98.0   -8.5  145.8   -5.3   169.8
 07 JAN 22  22:22:00:00     427    1.3      31   -2.3      228.6   98.0   -8.5  145.8   -5.3   169.2
 07 JAN 22  22:23:00:00     421    1.1      33   -1.1      228.7   98.0   -8.6  145.8   -5.3   168.7
 07 JAN 23  23:00:00:00     426    1.1      31   -2.1      228.7   97.9   -8.6  145.8   -5.3   168.1
 07 JAN 23  23:01:00:00     428    1.3      31   -0.9      228.8   97.9   -8.6  145.8   -5.3   167.6
 07 JAN 23  23:02:00:00     425    1.1      35   -1.4      228.8   97.8   -8.6  145.8   -5.3   167.0
 07 JAN 23  23:03:00:00     431    1.1      35   -1.2      228.9   97.8   -8.7  145.8   -5.3   166.5
 07 JAN 23  23:04:00:00     427    1.4      32   -1.7      228.9   97.7   -8.7  145.8   -5.3   165.9
 07 JAN 23  23:05:00:00     444    1.8      27   -0.5      229.0   97.7   -8.7  145.8   -5.3   165.4
 07 JAN 23  23:06:00:00     432    1.5      30   -1.1      229.0   97.6   -8.7  145.8   -5.3   164.8
 07 JAN 23  23:07:00:00     441    1.3      27   -1.4      229.1   97.6   -8.8  145.8   -5.3   164.3
 07 JAN 23  23:08:00:00     437    1.3      28   -1.3      229.1   97.6   -8.8  145.8   -5.3   163.7
 07 JAN 23  23:09:00:00     446    2.2      22    0.1      229.2   97.5   -8.8  145.8   -5.3   163.2
 07 JAN 23  23:10:00:00     446    2.1      25   -0.3      229.2   97.5   -8.8  145.8   -5.3   162.6
 07 JAN 23  23:11:00:00     425    1.5      33   -1.5      229.3   97.4   -8.8  145.8   -5.3   162.1
 07 JAN 23  23:12:00:00     410    1.4      33   -1.3      229.3   97.4   -8.9  145.8   -5.3   161.5
 07 JAN 23  23:13:00:00     405    1.1      31   -1.2      229.4   97.3   -8.9  145.8   -5.3   161.0
 07 JAN 23  23:14:00:00     400    1.1      30   -1.3      229.4   97.3   -8.9  145.8   -5.3   160.4
 07 JAN 23  23:15:00:00     391    1.3      28   -1.0      229.5   97.2   -8.9  145.8   -5.3   159.9
 07 JAN 23  23:16:00:00     385    1.3      27   -0.5      229.5   97.2   -9.0  145.8   -5.3   159.3
 07 JAN 23  23:17:00:00     380    1.1      26    0.0      229.6   97.1   -9.0  145.8   -5.3   158.8
 07 JAN 23  23:18:00:00     370    1.4      23    0.1      229.6   97.1   -9.0  145.8   -5.3   158.2
 07 JAN 23  23:19:00:00     367    1.5      23   -0.2      229.7   97.0   -9.0  145.8   -5.4   157.7
 07 JAN 23  23:20:00:00     356    2.0      21    0.2      229.7   97.0   -9.1  145.8   -5.4   157.1
 07 JAN 23  23:21:00:00     353    2.3      20    0.4      229.8   96.9   -9.1  145.8   -5.4   156.6
 07 JAN 23  23:22:00:00     370    1.7      23   -0.1      229.8   96.9   -9.1  145.8   -5.4   156.0
 07 JAN 23  23:23:00:00     362    2.7      21    2.0      229.9   96.8   -9.1  145.8   -5.4   155.5
 07 JAN 24  24:00:00:00     357    3.0      21    1.5      229.9   96.8   -9.2  145.8   -5.4   154.9
 07 JAN 24  24:01:00:00     361    2.5      21    1.0      230.0   96.7   -9.2  145.8   -5.4   154.4
 07 JAN 24  24:02:00:00     355    2.4      21    0.2      230.0   96.7   -9.2  145.8   -5.4   153.8
 07 JAN 24  24:03:00:00     352    2.6      20   -0.2      230.1   96.6   -9.2  145.8   -5.4   153.3
 07 JAN 24  24:04:00:00     354    2.6      20    0.2      230.1   96.6   -9.3  145.8   -5.4   152.7
 07 JAN 24  24:05:00:00     353    2.6      20   -0.4      230.2   96.5   -9.3  145.8   -5.4   152.2
 07 JAN 24  24:06:00:00     364    2.1      23   -0.4      230.2   96.5   -9.3  145.8   -5.4   151.6
 07 JAN 24  24:07:00:00     357    2.1      21    0.0      230.3   96.4   -9.3  145.8   -5.4   151.1
 07 JAN 24  24:08:00:00     359    2.1      21   -0.3      230.3   96.4   -9.3  145.8   -5.4   150.5
 07 JAN 24  24:09:00:00     352    2.8      20    0.4      230.4   96.3   -9.4  145.8   -5.4   150.0
 07 JAN 24  24:10:00:00     351    2.4      20   -0.5      230.4   96.3   -9.4  145.8   -5.4   149.4
 07 JAN 24  24:11:00:00     350    3.0      19   -1.2      230.5   96.2   -9.4  145.8   -5.4   148.9
 07 JAN 24  24:12:00:00     350    2.7      19   -1.0      230.5   96.2   -9.4  145.8   -5.4   148.3
 07 JAN 24  24:13:00:00     352    2.7      20   -0.3      230.6   96.1   -9.5  145.8   -5.4   147.8
 07 JAN 24  24:14:00:00     351    2.7      20    0.1      230.6   96.0   -9.5  145.8   -5.4   147.2
 07 JAN 24  24:15:00:00     351    2.7      20    0.5      230.7   96.0   -9.5  145.8   -5.4   146.7
 07 JAN 24  24:16:00:00     351    2.5      20    0.1      230.7   95.9   -9.5  145.8   -5.4   146.1
 07 JAN 24  24:17:00:00     351    3.0      20    0.9      230.8   95.9   -9.6  145.8   -5.4   145.6
 07 JAN 24  24:18:00:00     350    3.1      19    0.6      230.8   95.8   -9.6  145.8   -5.4   145.0
 07 JAN 24  24:19:00:00     350    2.5      20   -0.3      230.9   95.8   -9.6  145.8   -5.4   144.5
 07 JAN 24  24:20:00:00     349    2.5      19   -1.0      230.9   95.7   -9.6  145.8   -5.4   143.9
 07 JAN 24  24:21:00:00     345    1.8      20    0.0      231.0   95.7   -9.7  145.8   -5.4   143.4
 07 JAN 24  24:22:00:00     343    1.6      20    1.3      231.0   95.6   -9.7  145.8   -5.5   142.8
 07 JAN 24  24:23:00:00     341    1.6      20    1.3      231.1   95.5   -9.7  145.8   -5.5   142.3
 07 JAN 25  25:00:00:00     339    1.3      20   -0.5      231.1   95.5   -9.7  145.8   -5.5   141.7
 07 JAN 25  25:01:00:00     340    1.4      21   -0.2      231.2   95.4   -9.7  145.8   -5.5   141.2
 07 JAN 25  25:02:00:00     339    1.6      20    0.2      231.2   95.4   -9.8  145.8   -5.5   140.6
 07 JAN 25  25:03:00:00     339    1.5      19    0.5      231.3   95.3   -9.8  145.8   -5.5   140.1
 07 JAN 25  25:04:00:00     337    1.4      19   -0.7      231.3   95.3   -9.8  145.8   -5.5   139.5
 07 JAN 25  25:05:00:00     328    1.0      20   -1.0      231.4   95.2   -9.8  145.8   -5.5   139.0
 07 JAN 25  25:06:00:00     331    1.7      19   -1.1      231.4   95.1   -9.9  145.8   -5.5   138.4
 07 JAN 25  25:07:00:00     344    3.0      16   -0.2      231.5   95.1   -9.9  145.8   -5.5   137.9
 07 JAN 25  25:08:00:00     346    3.9      14   -1.1      231.5   95.0   -9.9  145.8   -5.5   137.3
 07 JAN 25  25:09:00:00     346    4.3      14    1.3      231.5   95.0   -9.9  145.8   -5.5   136.8
 07 JAN 25  25:10:00:00     345    3.7      10   -0.8      231.6   94.9  -10.0  145.8   -5.5   136.2
 07 JAN 25  25:11:00:00     345    3.7       8   -0.9      231.6   94.9  -10.0  145.8   -5.5   135.7
 07 JAN 25  25:12:00:00     345    3.3       9   -0.7      231.7   94.8  -10.0  145.8   -5.5   135.1
 07 JAN 25  25:13:00:00     346    3.1      11   -0.2      231.7   94.7  -10.0  145.8   -5.5   134.6
 07 JAN 25  25:14:00:00     346    2.9      11   -0.9      231.8   94.7  -10.0  145.8   -5.5   134.0
 07 JAN 25  25:15:00:00     346    2.9      10   -1.0      231.8   94.6  -10.1  145.8   -5.5   133.5
 07 JAN 25  25:16:00:00     346    2.7      10   -0.7      231.9   94.5  -10.1  145.8   -5.5   132.9
 07 JAN 25  25:17:00:00     347    2.3      16   -1.0      231.9   94.5  -10.1  145.8   -5.5   132.4
 07 JAN 25  25:18:00:00     341    2.0      20   -1.1      232.0   94.4  -10.1  145.8   -5.5   131.8
 07 JAN 25  25:19:00:00     347    2.1      20   -1.0      232.0   94.4  -10.2  145.8   -5.5   131.3
 07 JAN 25  25:20:00:00     344    2.4      21   -2.6      232.1   94.3  -10.2  145.8   -5.5   130.7
 07 JAN 25  25:21:00:00     328    2.1      21   -3.4      232.1   94.2  -10.2  145.8   -5.5   130.2
 07 JAN 25  25:22:00:00     329    1.9      21   -3.3      232.2   94.2  -10.2  145.8   -5.5   129.6
 07 JAN 25  25:23:00:00     333    1.4      22   -1.0      232.2   94.1  -10.3  145.8   -5.5   129.1
 07 JAN 26  26:00:00:00     333    2.0      21    0.0      232.3   94.1  -10.3  145.8   -5.5   128.5
 07 JAN 26  26:01:00:00     334    1.4      22    0.0      232.3   94.0  -10.3  145.8   -5.5   128.0
 07 JAN 26  26:02:00:00     340    1.9      21    1.0      232.4   93.9  -10.3  145.8   -5.6   127.4
 07 JAN 26  26:03:00:00     342    1.6      22   -0.2      232.4   93.9  -10.3  145.8   -5.6   126.9
 07 JAN 26  26:04:00:00     341    1.4      22    0.3      232.5   93.8  -10.4  145.8   -5.6   126.3
 07 JAN 26  26:05:00:00     332    1.4      22    0.4      232.5   93.7  -10.4  145.8   -5.6   125.8
 07 JAN 26  26:06:00:00     313    1.5      20    0.0      232.6   93.7  -10.4  145.8   -5.6   125.2
 07 JAN 26  26:07:00:00     310    1.6      20   -0.3      232.6   93.6  -10.4  145.8   -5.6   124.7
 07 JAN 26  26:08:00:00     310    1.9      20   -0.6      232.7   93.5  -10.5  145.8   -5.6   124.1
 07 JAN 26  26:09:00:00     299    2.5      19   -1.1      232.7   93.5  -10.5  145.8   -5.6   123.6
 07 JAN 26  26:10:00:00     311    2.2      20   -1.0      232.8   93.4  -10.5  145.8   -5.6   123.0
 07 JAN 26  26:11:00:00     340    1.6      25   -1.6      232.8   93.3  -10.5  145.8   -5.6   122.5
 07 JAN 26  26:12:00:00     339    1.4      24   -2.0      232.9   93.3  -10.6  145.8   -5.6   121.9
 07 JAN 26  26:13:00:00     357    1.3      23   -1.1      232.9   93.2  -10.6  145.8   -5.6   121.4
 07 JAN 26  26:14:00:00     352    1.0      23   -0.8      233.0   93.1  -10.6  145.8   -5.6   120.8
 07 JAN 26  26:15:00:00     345    0.8      23   -0.3      233.0   93.1  -10.6  145.8   -5.6   120.3
 07 JAN 26  26:16:00:00     354    0.9      26    0.0      233.1   93.0  -10.6  145.8   -5.6   119.7
 07 JAN 26  26:17:00:00     358    0.7      30   -0.7      233.1   92.9  -10.7  145.8   -5.6   119.2
 07 JAN 26  26:18:00:00     359    0.6      34   -1.1      233.1   92.9  -10.7  145.8   -5.6   118.6
 07 JAN 26  26:19:00:00     368    0.6      38   -1.1      233.2   92.8  -10.7  145.8   -5.6   118.1
 07 JAN 26  26:20:00:00     336    1.1      28   -0.6      233.2   92.7  -10.7  145.8   -5.6   117.5
 07 JAN 26  26:21:00:00     316    1.9      21   -0.6      233.3   92.7  -10.8  145.8   -5.6   117.0
 07 JAN 26  26:22:00:00     301    2.1      19   -0.5      233.3   92.6  -10.8  145.8   -5.6   116.4
 07 JAN 26  26:23:00:00     297    2.3      19   -0.3      233.4   92.5  -10.8  145.8   -5.6   115.9
 07 JAN 27  27:00:00:00     311    1.9      21    0.2      233.4   92.5  -10.8  145.8   -5.6   115.3
 07 JAN 27  27:01:00:00     285    3.8      17    0.0      233.5   92.4  -10.8  145.8   -5.6   114.8
 07 JAN 27  27:02:00:00     286    3.3      17   -0.1      233.5   92.3  -10.9  145.8   -5.6   114.2
 07 JAN 27  27:03:00:00     284    3.7      17   -0.8      233.6   92.3  -10.9  145.8   -5.6   113.7
 07 JAN 27  27:04:00:00     275    4.1      15   -0.4      233.6   92.2  -10.9  145.8   -5.6   113.1
 07 JAN 27  27:05:00:00     275    4.2      14   -0.5      233.7   92.1  -10.9  145.8   -5.6   112.6
 07 JAN 27  27:06:00:00     274    4.5      14   -0.4      233.7   92.0  -11.0  145.8   -5.6   112.0
 07 JAN 27  27:07:00:00     273    4.0      12   -0.4      233.8   92.0  -11.0  145.8   -5.7   111.5
 07 JAN 27  27:08:00:00     272    4.6      11   -0.7      233.8   91.9  -11.0  145.8   -5.7   110.9
 07 JAN 27  27:09:00:00     272    4.2      11   -1.3      233.9   91.8  -11.0  145.8   -5.7   110.4
 07 JAN 27  27:10:00:00      -1   -1.0      -1   99.0      233.9   91.8  -11.1  145.8   -5.7   109.8
 07 JAN 27  27:11:00:00      -1   -1.0      -1   99.0      234.0   91.7  -11.1  145.8   -5.7   109.3
 07 JAN 27  27:12:00:00      -1   -1.0      -1   99.0      234.0   91.6  -11.1  145.8   -5.7   108.7
 07 JAN 27  27:13:00:00      -1   -1.0      -1   99.0      234.1   91.5  -11.1  145.8   -5.7   108.2
 07 JAN 27  27:14:00:00      -1   -1.0      -1   99.0      234.1   91.5  -11.1  145.8   -5.7   107.6
 07 JAN 27  27:15:00:00      -1   -1.0      -1   99.0      234.2   91.4  -11.2  145.8   -5.7   107.1
 07 JAN 27  27:16:00:00      -1   -1.0      -1   99.0      234.2   91.3  -11.2  145.8   -5.7   106.5
 07 JAN 27  27:17:00:00      -1   -1.0      -1   99.0      234.3   91.2  -11.2  145.8   -5.7   106.0
 07 JAN 27  27:18:00:00      -1   -1.0      -1   99.0      234.3   91.2  -11.2  145.8   -5.7   105.5
 07 JAN 27  27:19:00:00      -1   -1.0      -1   99.0      234.4   91.1  -11.3  145.8   -5.7   104.9
 07 JAN 27  27:20:00:00      -1   -1.0      -1   99.0      234.4   91.0  -11.3  145.8   -5.7   104.4
 07 JAN 27  27:21:00:00      -1   -1.0      -1   99.0      234.5   91.0  -11.3  145.8   -5.7   103.8
 07 JAN 27  27:22:00:00      -1   -1.0      -1   99.0      234.5   90.9  -11.3  145.8   -5.7   103.3
 07 JAN 27  27:23:00:00      -1   -1.0      -1   99.0      234.5   90.8  -11.3  145.8   -5.7   102.7
 07 JAN 28  28:00:00:00      -1   -1.0      -1   99.0      234.6   90.7  -11.4  145.8   -5.7   102.2
 07 JAN 28  28:01:00:00      -1   -1.0      -1   99.0      234.6   90.7  -11.4  145.8   -5.7   101.6
 07 JAN 28  28:02:00:00      -1   -1.0      -1   99.0      234.7   90.6  -11.4  145.8   -5.7   101.1
 07 JAN 28  28:03:00:00      -1   -1.0      -1   99.0      234.7   90.5  -11.4  145.8   -5.7   100.5
 07 JAN 28  28:04:00:00      -1   -1.0      -1   99.0      234.8   90.4  -11.5  145.8   -5.7   100.0
 07 JAN 28  28:05:00:00      -1   -1.0      -1   99.0      234.8   90.3  -11.5  145.8   -5.7    99.4
 07 JAN 28  28:06:00:00      -1   -1.0      -1   99.0      234.9   90.3  -11.5  145.8   -5.7    98.9
 07 JAN 28  28:07:00:00      -1   -1.0      -1   99.0      234.9   90.2  -11.5  145.8   -5.7    98.3
 07 JAN 28  28:08:00:00      -1   -1.0      -1   99.0      235.0   90.1  -11.5  145.8   -5.7    97.8
 07 JAN 28  28:09:00:00      -1   -1.0      -1   99.0      235.0   90.0  -11.6  145.8   -5.7    97.2
 07 JAN 28  28:10:00:00      -1   -1.0      -1   99.0      235.1   90.0  -11.6  145.8   -5.7    96.7
 07 JAN 28  28:11:00:00      -1   -1.0      -1   99.0      235.1   89.9  -11.6  145.8   -5.7    96.1
 07 JAN 28  28:12:00:00      -1   -1.0      -1   99.0      235.2   89.8  -11.6  145.8   -5.8    95.6
 07 JAN 28  28:13:00:00      -1   -1.0      -1   99.0      235.2   89.7  -11.7  145.8   -5.8    95.0
 07 JAN 28  28:14:00:00      -1   -1.0      -1   99.0      235.3   89.6  -11.7  145.8   -5.8    94.5
 07 JAN 28  28:15:00:00      -1   -1.0      -1   99.0      235.3   89.6  -11.7  145.8   -5.8    93.9
 07 JAN 28  28:16:00:00      -1   -1.0      -1   99.0      235.4   89.5  -11.7  145.8   -5.8    93.4
 07 JAN 28  28:17:00:00      -1   -1.0      -1   99.0      235.4   89.4  -11.7  145.8   -5.8    92.8
 07 JAN 28  28:18:00:00      -1   -1.0      -1   99.0      235.5   89.3  -11.8  145.8   -5.8    92.3
 07 JAN 28  28:19:00:00      -1   -1.0      -1   99.0      235.5   89.3  -11.8  145.8   -5.8    91.7
 07 JAN 28  28:20:00:00      -1   -1.0      -1   99.0      235.6   89.2  -11.8  145.8   -5.8    91.2
 07 JAN 28  28:21:00:00      -1   -1.0      -1   99.0      235.6   89.1  -11.8  145.8   -5.8    90.6
 07 JAN 28  28:22:00:00      -1   -1.0      -1   99.0      235.7   89.0  -11.9  145.8   -5.8    90.1
 07 JAN 28  28:23:00:00      -1   -1.0      -1   99.0      235.7   88.9  -11.9  145.8   -5.8    89.5
 07 JAN 29  29:00:00:00      -1   -1.0      -1   99.0      235.8   88.8  -11.9  145.8   -5.8    89.0
 07 JAN 29  29:01:00:00      -1   -1.0      -1   99.0      235.8   88.8  -11.9  145.8   -5.8    88.4
 07 JAN 29  29:02:00:00      -1   -1.0      -1   99.0      235.9   88.7  -11.9  145.8   -5.8    87.9
 07 JAN 29  29:03:00:00      -1   -1.0      -1   99.0      235.9   88.6  -12.0  145.8   -5.8    87.3
 07 JAN 29  29:04:00:00      -1   -1.0      -1   99.0      236.0   88.5  -12.0  145.8   -5.8    86.8
 07 JAN 29  29:05:00:00      -1   -1.0      -1   99.0      236.0   88.4  -12.0  145.8   -5.8    86.2
 07 JAN 29  29:06:00:00      -1   -1.0      -1   99.0      236.1   88.4  -12.0  145.8   -5.8    85.7
 07 JAN 29  29:07:00:00      -1   -1.0      -1   99.0      236.1   88.3  -12.0  145.8   -5.8    85.1
 07 JAN 29  29:08:00:00      -1   -1.0      -1   99.0      236.2   88.2  -12.1  145.8   -5.8    84.6
 07 JAN 29  29:09:00:00      -1   -1.0      -1   99.0      236.2   88.1  -12.1  145.8   -5.8    84.0
 07 JAN 29  29:10:00:00      -1   -1.0      -1   99.0      236.2   88.0  -12.1  145.8   -5.8    83.5
 07 JAN 29  29:11:00:00      -1   -1.0      -1   99.0      236.3   87.9  -12.1  145.8   -5.8    82.9
 07 JAN 29  29:12:00:00      -1   -1.0      -1   99.0      236.3   87.9  -12.2  145.8   -5.8    82.4
 07 JAN 29  29:13:00:00      -1   -1.0      -1   99.0      236.4   87.8  -12.2  145.8   -5.8    81.8
 07 JAN 29  29:14:00:00      -1   -1.0      -1   99.0      236.4   87.7  -12.2  145.8   -5.8    81.3
 07 JAN 29  29:15:00:00      -1   -1.0      -1   99.0      236.5   87.6  -12.2  145.8   -5.8    80.7
 07 JAN 29  29:16:00:00      -1   -1.0      -1   99.0      236.5   87.5  -12.2  145.8   -5.8    80.2
 07 JAN 29  29:17:00:00      -1   -1.0      -1   99.0      236.6   87.4  -12.3  145.8   -5.8    79.6
 07 JAN 29  29:18:00:00      -1   -1.0      -1   99.0      236.6   87.4  -12.3  145.8   -5.9    79.1
 07 JAN 29  29:19:00:00      -1   -1.0      -1   99.0      236.7   87.3  -12.3  145.8   -5.9    78.5
 07 JAN 29  29:20:00:00      -1   -1.0      -1   99.0      236.7   87.2  -12.3  145.8   -5.9    78.0
 07 JAN 29  29:21:00:00      -1   -1.0      -1   99.0      236.8   87.1  -12.4  145.8   -5.9    77.4
 07 JAN 29  29:22:00:00      -1   -1.0      -1   99.0      236.8   87.0  -12.4  145.8   -5.9    76.9
 07 JAN 29  29:23:00:00      -1   -1.0      -1   99.0      236.9   86.9  -12.4  145.8   -5.9    76.3
 07 JAN 30  30:00:00:00     753    3.1      70   -1.2      236.9   86.8  -12.4  145.8   -5.9    75.8
 07 JAN 30  30:01:00:00     716    2.6      60   -0.8      237.0   86.7  -12.4  145.8   -5.9    75.2
 07 JAN 30  30:02:00:00     694    2.7      58   -0.4      237.0   86.7  -12.5  145.8   -5.9    74.7
 07 JAN 30  30:03:00:00     679    2.7      58   -0.4      237.1   86.6  -12.5  145.8   -5.9    74.1
 07 JAN 30  30:04:00:00     668    3.0      57   -0.4      237.1   86.5  -12.5  145.8   -5.9    73.6
 07 JAN 30  30:05:00:00     656    3.8      56    0.3      237.2   86.4  -12.5  145.8   -5.9    73.0
 07 JAN 30  30:06:00:00     665    3.5      59    0.9      237.2   86.3  -12.5  145.8   -5.9    72.5
 07 JAN 30  30:07:00:00     697    3.1      56    1.8      237.3   86.2  -12.6  145.8   -5.9    71.9
 07 JAN 30  30:08:00:00     675    3.6      57    2.2      237.3   86.1  -12.6  145.8   -5.9    71.4
 07 JAN 30  30:09:00:00     637    3.9      53    2.2      237.4   86.0  -12.6  145.8   -5.9    70.8
 07 JAN 30  30:10:00:00     614    3.2      51   -0.8      237.4   86.0  -12.6  145.8   -5.9    70.3
 07 JAN 30  30:11:00:00     624    3.1      51   -2.2      237.5   85.9  -12.7  145.8   -5.9    69.7
 07 JAN 30  30:12:00:00     617    2.7      50   -0.5      237.5   85.8  -12.7  145.8   -5.9    69.2
 07 JAN 30  30:13:00:00     608    3.4      50    0.1      237.6   85.7  -12.7  145.8   -5.9    68.6
 07 JAN 30  30:14:00:00     640    3.0      55   -0.4      237.6   85.6  -12.7  145.8   -5.9    68.1
 07 JAN 30  30:15:00:00     628    3.2      51    1.0      237.7   85.5  -12.7  145.8   -5.9    67.5
 07 JAN 30  30:16:00:00     618    3.2      52   -1.6      237.7   85.4  -12.8  145.8   -5.9    67.0
 07 JAN 30  30:17:00:00     707    2.6      62    0.9      237.8   85.3  -12.8  145.8   -5.9    66.4
 07 JAN 30  30:18:00:00     688    2.2      58   -0.7      237.8   85.2  -12.8  145.9   -5.9    65.9
 07 JAN 30  30:19:00:00     658    2.4      56   -0.6      237.9   85.2  -12.8  145.9   -5.9    65.3
 07 JAN 30  30:20:00:00     664    2.6      57   -1.5      237.9   85.1  -12.8  145.9   -5.9    64.8
 07 JAN 30  30:21:00:00     704    2.1      58   -0.6      238.0   85.0  -12.9  145.9   -5.9    64.2
 07 JAN 30  30:22:00:00     715    2.0      58   -1.0      238.0   84.9  -12.9  145.9   -5.9    63.7
 07 JAN 30  30:23:00:00     709    2.1      57   -0.8      238.1   84.8  -12.9  145.9   -5.9    63.1
 07 JAN 31  31:00:00:00     699    2.1      60   -0.9      238.1   84.7  -12.9  145.9   -5.9    62.6
 07 JAN 31  31:01:00:00     707    2.1      55   -0.1      238.2   84.6  -13.0  145.9   -6.0    62.0
 07 JAN 31  31:02:00:00     745    2.5      57    0.9      238.2   84.5  -13.0  145.9   -6.0    61.5
 07 JAN 31  31:03:00:00     759    2.6      57    1.0      238.3   84.4  -13.0  145.9   -6.0    60.9
 07 JAN 31  31:04:00:00     765    2.5      53    0.9      238.3   84.3  -13.0  145.9   -6.0    60.4
 07 JAN 31  31:05:00:00     762    2.4      54    0.3      238.4   84.2  -13.0  145.9   -6.0    59.8
 07 JAN 31  31:06:00:00     762    2.3      53    1.0      238.4   84.1  -13.1  145.9   -6.0    59.3
 07 JAN 31  31:07:00:00     760    2.1      55    1.3      238.5   84.0  -13.1  145.9   -6.0    58.7
 07 JAN 31  31:08:00:00     763    2.1      57   -1.4      238.5   84.0  -13.1  145.9   -6.0    58.2
 07 JAN 31  31:09:00:00     723    1.7      60   -0.5      238.6   83.9  -13.1  145.9   -6.0    57.6
 07 JAN 31  31:10:00:00     739    1.7      57   -1.8      238.6   83.8  -13.1  145.9   -6.0    57.1
 07 JAN 31  31:11:00:00     718    1.8      62    0.2      238.7   83.7  -13.2  145.9   -6.0    56.5
 07 JAN 31  31:12:00:00     733    2.1      62    0.4      238.7   83.6  -13.2  145.9   -6.0    56.0
 07 JAN 31  31:13:00:00     692    2.0      61    2.0      238.8   83.5  -13.2  145.9   -6.0    55.4
 07 JAN 31  31:14:00:00     687    2.1      60    1.7      238.8   83.4  -13.2  145.9   -6.0    54.9
 07 JAN 31  31:15:00:00     680    1.7      58   -0.2      238.9   83.3  -13.2  145.9   -6.0    54.3
 07 JAN 31  31:16:00:00     659    1.9      54    1.0      238.9   83.2  -13.3  145.9   -6.0    53.8
 07 JAN 31  31:17:00:00     678    1.8      54    0.1      239.0   83.1  -13.3  145.9   -6.0    53.2
 07 JAN 31  31:18:00:00     637    2.2      52   -0.9      239.0   83.0  -13.3  145.9   -6.0    52.7
 07 JAN 31  31:19:00:00     615    2.5      51    1.0      239.1   82.9  -13.3  145.9   -6.0    52.1
 07 JAN 31  31:20:00:00     643    1.7      53   -0.8      239.1   82.8  -13.3  145.9   -6.0    51.6
 07 JAN 31  31:21:00:00     612    2.3      50    0.0      239.2   82.7  -13.4  145.9   -6.0    51.0
 07 JAN 31  31:22:00:00     610    2.5      50   -0.2      239.2   82.6  -13.4  145.9   -6.0    50.5
 07 JAN 31  31:23:00:00     585    3.0      44    0.4      239.3   82.5  -13.4  145.9   -6.0    49.9
 07 FEB  1  32:00:00:00     577    2.9      40    0.4      239.3   82.4  -13.4  145.9   -6.0    49.4
 07 FEB  1  32:01:00:00     584    2.5      43    0.5      239.4   82.3  -13.5  145.9   -6.0    48.8
 07 FEB  1  32:02:00:00     588    2.5      44   -0.3      239.4   82.2  -13.5  145.9   -6.0    48.3
 07 FEB  1  32:03:00:00     597    2.2      47   -1.0      239.5   82.1  -13.5  145.9   -6.0    47.7
 07 FEB  1  32:04:00:00     586    2.5      44    0.3      239.5   82.0  -13.5  145.9   -6.0    47.2
 07 FEB  1  32:05:00:00     581    2.0      43    0.1      239.6   82.0  -13.5  145.9   -6.0    46.6
 07 FEB  1  32:06:00:00     588    1.9      44   -1.3      239.6   81.9  -13.6  145.9   -6.0    46.1
 07 FEB  1  32:07:00:00     577    2.4      39   -2.9      239.7   81.8  -13.6  145.9   -6.0    45.5
 07 FEB  1  32:08:00:00     575    2.2      39   -2.1      239.7   81.7  -13.6  145.9   -6.0    45.0
 07 FEB  1  32:09:00:00     565    2.2      35   -1.3      239.8   81.6  -13.6  145.9   -6.1    44.4
 07 FEB  1  32:10:00:00     570    2.2      38    0.0      239.8   81.5  -13.6  145.9   -6.1    43.9
 07 FEB  1  32:11:00:00     575    2.3      38    0.4      239.9   81.4  -13.7  145.9   -6.1    43.3
 07 FEB  1  32:12:00:00     568    2.5      36   -1.5      239.9   81.3  -13.7  145.9   -6.1    42.8
 07 FEB  1  32:13:00:00     565    1.7      37   -2.5      240.0   81.2  -13.7  145.9   -6.1    42.2
 07 FEB  1  32:14:00:00     567    1.9      38   -2.0      240.0   81.1  -13.7  145.9   -6.1    41.7
 07 FEB  1  32:15:00:00     566    2.0      38   -0.4      240.1   81.0  -13.7  145.9   -6.1    41.1
 07 FEB  1  32:16:00:00     567    1.5      41   -1.9      240.1   80.9  -13.8  145.9   -6.1    40.6
 07 FEB  1  32:17:00:00     569    2.2      38   -0.9      240.2   80.8  -13.8  145.9   -6.1    40.0
 07 FEB  1  32:18:00:00     567    2.5      36    0.3      240.2   80.7  -13.8  145.9   -6.1    39.5
 07 FEB  1  32:19:00:00     565    2.5      35   -0.7      240.3   80.6  -13.8  145.9   -6.1    38.9
 07 FEB  1  32:20:00:00     561    2.5      34   -0.1      240.3   80.5  -13.8  145.9   -6.1    38.4
 07 FEB  1  32:21:00:00     561    2.3      34   -0.3      240.4   80.4  -13.9  145.9   -6.1    37.8
 07 FEB  1  32:22:00:00     560    1.9      35   -0.7      240.4   80.3  -13.9  145.9   -6.1    37.3
 07 FEB  1  32:23:00:00     555    1.6      33   -0.7      240.5   80.2  -13.9  145.9   -6.1    36.7
 07 FEB  2  33:00:00:00     559    1.7      38   -0.8      240.5   80.1  -13.9  145.9   -6.1    36.2
 07 FEB  2  33:01:00:00     557    1.5      40   -0.4      240.6   80.0  -13.9  145.9   -6.1    35.6
 07 FEB  2  33:02:00:00     555    1.2      44   -1.4      240.6   79.9  -14.0  145.9   -6.1    35.1
 07 FEB  2  33:03:00:00     553    1.1      47   -0.9      240.7   79.8  -14.0  145.9   -6.1    34.5
 07 FEB  2  33:04:00:00     554    1.1      47   -0.4      240.7   79.7  -14.0  145.9   -6.1    34.0
 07 FEB  2  33:05:00:00     534    1.5      47   -1.0      240.8   79.6  -14.0  145.9   -6.1    33.4
 07 FEB  2  33:06:00:00     540    1.2      49   -0.7      240.8   79.5  -14.0  145.9   -6.1    32.9
 07 FEB  2  33:07:00:00     528    1.1      47   -0.3      240.9   79.4  -14.1  145.9   -6.1    32.4
 07 FEB  2  33:08:00:00     511    1.6      46   -0.1      240.9   79.3  -14.1  145.9   -6.1    31.8
 07 FEB  2  33:09:00:00     492    2.0      42   -0.8      241.0   79.2  -14.1  145.9   -6.1    31.3
 07 FEB  2  33:10:00:00     483    2.5      40    0.3      241.0   79.0  -14.1  145.9   -6.1    30.7
 07 FEB  2  33:11:00:00     473    2.4      37   -0.3      241.1   78.9  -14.1  145.9   -6.1    30.2
 07 FEB  2  33:12:00:00     473    2.2      37   -0.2      241.1   78.8  -14.2  145.9   -6.1    29.6
 07 FEB  2  33:13:00:00     466    2.4      33   -1.2      241.2   78.7  -14.2  145.9   -6.1    29.1
 07 FEB  2  33:14:00:00     465    2.2      33   -1.7      241.2   78.6  -14.2  145.9   -6.1    28.5
 07 FEB  2  33:15:00:00     466    2.4      32   -1.2      241.3   78.5  -14.2  145.9   -6.1    28.0
 07 FEB  2  33:16:00:00     464    2.6      31    0.3      241.3   78.4  -14.2  145.9   -6.1    27.4
 07 FEB  2  33:17:00:00     464    2.2      31    0.3      241.4   78.3  -14.3  145.9   -6.1    26.9
 07 FEB  2  33:18:00:00     461    2.2      30   -1.6      241.4   78.2  -14.3  145.9   -6.1    26.3
 07 FEB  2  33:19:00:00     464    2.0      32   -0.8      241.5   78.1  -14.3  145.9   -6.2    25.8
 07 FEB  2  33:20:00:00     457    2.1      29   -1.9      241.5   78.0  -14.3  145.9   -6.2    25.2
 07 FEB  2  33:21:00:00     457    2.0      28   -2.2      241.6   77.9  -14.3  145.9   -6.2    24.7
 07 FEB  2  33:22:00:00     455    2.1      28   -1.6      241.6   77.8  -14.4  145.9   -6.2    24.1
 07 FEB  2  33:23:00:00     454    2.2      27   -1.8      241.7   77.7  -14.4  145.9   -6.2    23.6
 07 FEB  3  34:00:00:00     448    2.4      23   -1.4      241.7   77.6  -14.4  145.9   -6.2    23.0
 07 FEB  3  34:01:00:00     455    1.7      28   -1.7      241.8   77.5  -14.4  145.9   -6.2    22.5
 07 FEB  3  34:02:00:00     455    1.6      27   -1.9      241.8   77.4  -14.4  145.9   -6.2    21.9
 07 FEB  3  34:03:00:00     459    1.4      30   -1.7      241.9   77.3  -14.5  145.9   -6.2    21.4
 07 FEB  3  34:04:00:00     459    1.4      31   -1.6      241.9   77.2  -14.5  145.9   -6.2    20.8
 07 FEB  3  34:05:00:00     454    1.5      29   -1.1      242.0   77.1  -14.5  145.9   -6.2    20.3
 07 FEB  3  34:06:00:00     452    1.6      29   -2.7      242.0   77.0  -14.5  145.9   -6.2    19.7
 07 FEB  3  34:07:00:00     451    1.6      27   -1.6      242.1   76.9  -14.5  145.9   -6.2    19.2
 07 FEB  3  34:08:00:00     457    1.3      30   -1.7      242.1   76.8  -14.6  145.9   -6.2    18.6
 07 FEB  3  34:09:00:00     458    1.0      34   -2.1      242.2   76.6  -14.6  145.9   -6.2    18.1
 07 FEB  3  34:10:00:00     451    0.8      36   -1.9      242.2   76.5  -14.6  145.9   -6.2    17.5
 07 FEB  3  34:11:00:00     444    0.7      39   -1.6      242.3   76.4  -14.6  145.9   -6.2    17.0
 07 FEB  3  34:12:00:00     440    0.6      39   -1.7      242.3   76.3  -14.6  145.9   -6.2    16.4
 07 FEB  3  34:13:00:00     437    0.6      40   -1.7      242.4   76.2  -14.7  145.9   -6.2    15.9
 07 FEB  3  34:14:00:00     418    0.8      37   -0.6      242.4   76.1  -14.7  145.9   -6.2    15.3
 07 FEB  3  34:15:00:00     405    0.9      34   -0.5      242.5   76.0  -14.7  145.9   -6.2    14.8
 07 FEB  3  34:16:00:00     389    1.2      30   -0.5      242.5   75.9  -14.7  145.9   -6.2    14.2
 07 FEB  3  34:17:00:00     382    1.4      28   -0.3      242.6   75.8  -14.7  145.9   -6.2    13.7
 07 FEB  3  34:18:00:00     356    2.4      21    0.2      242.6   75.7  -14.8  145.9   -6.2    13.1
 07 FEB  3  34:19:00:00     349    2.9      18    0.6      242.7   75.6  -14.8  145.9   -6.2    12.6
 07 FEB  3  34:20:00:00     350    2.9      18    0.7      242.7   75.5  -14.8  145.9   -6.2    12.0
 07 FEB  3  34:21:00:00     349    3.1      17    0.3      242.8   75.4  -14.8  145.9   -6.2    11.5
 07 FEB  3  34:22:00:00     349    2.7      17   -0.5      242.8   75.3  -14.8  145.9   -6.2    10.9
 07 FEB  3  34:23:00:00     350    2.7      19   -0.6      242.9   75.1  -14.8  145.9   -6.2    10.4
 07 FEB  4  35:00:00:00     353    2.6      20   -0.2      242.9   75.0  -14.9  145.9   -6.2     9.8
 07 FEB  4  35:01:00:00     355    3.1      21    0.5      243.0   74.9  -14.9  145.9   -6.2     9.3
 07 FEB  4  35:02:00:00     352    4.3      20    0.8      243.0   74.8  -14.9  145.9   -6.2     8.7
 07 FEB  4  35:03:00:00     351    4.7      19    1.1      243.1   74.7  -14.9  145.9   -6.2     8.2
 07 FEB  4  35:04:00:00     349    4.7      16    1.7      243.1   74.6  -14.9  145.9   -6.2     7.6
 07 FEB  4  35:05:00:00     347    3.4      14    2.5      243.2   74.5  -15.0  145.9   -6.3     7.1
 07 FEB  4  35:06:00:00     347    3.9      14    3.6      243.2   74.4  -15.0  145.9   -6.3     6.5
 07 FEB  4  35:07:00:00     346    3.9      15    3.6      243.3   74.3  -15.0  145.9   -6.3     6.0
 07 FEB  4  35:08:00:00     345    2.7      17    3.3      243.3   74.2  -15.0  145.9   -6.3     5.4
 07 FEB  4  35:09:00:00     342    2.6      18    2.6      243.4   74.1  -15.0  145.9   -6.3     4.9
 07 FEB  4  35:10:00:00     341    2.3      19    2.0      243.4   73.9  -15.1  145.9   -6.3     4.3
 07 FEB  4  35:11:00:00     343    2.7      17    0.6      243.5   73.8  -15.1  145.9   -6.3     3.8
 07 FEB  4  35:12:00:00     346    2.9      13   -0.9      243.5   73.7  -15.1  145.9   -6.3     3.2
 07 FEB  4  35:13:00:00     346    3.4      13    0.4      243.6   73.6  -15.1  145.9   -6.3     2.7
 07 FEB  4  35:14:00:00     346    3.2      13    0.0      243.6   73.5  -15.1  145.9   -6.3     2.1
 07 FEB  4  35:15:00:00     345    2.8      14   -1.7      243.7   73.4  -15.2  145.9   -6.3     1.6
 07 FEB  4  35:16:00:00     333    1.7      19   -0.3      243.7   73.3  -15.2  145.9   -6.3     1.0
 07 FEB  4  35:17:00:00     326    1.5      20   -0.5      243.8   73.2  -15.2  145.9   -6.3     0.5
 07 FEB  4  35:18:00:00     327    1.6      19   -1.2      243.8   73.1  -15.2  145.9   -6.3   359.9
 07 FEB  4  35:19:00:00     330    1.7      18   -1.7      243.9   73.0  -15.2  145.9   -6.3   359.4